Decoded Metar for YNTN ( in ) (IATA:) | Meteo·Mobile Aviation Weather
aviador You're here:

YNTN Decoded Metar

in
Report Time2018-09-20 08:00:00
UTC Time2018-09-20 08:24:06
Flight Rules vfr VFR
Wind170° at 10 kt
W.Decomp.*RWY 14: 8.7 kt HW 5.0 kt RCW
W.Rank170° ranks 1
Current wind is above 170° avg. (9.3)
Visibility9999 m
Phenomena:N/A
Clouds:N/A
Expected CloudBase > 12,800 ft AGL from Temp-Dew spread
CeilingNone
Temp33°C
Dew Point01°C (13% RH)
Heat Index30.6°C
AAT27.5°C
QNH1011 hPa
Raw Report
METAR YNTN 200800Z AUTO 17010KT 9999 // NCD 33/01 Q1011=

Extra information for YNTN:More info

Social comments